sensor_id;sensor_type;location;lat;lon;timestamp;pressure;altitude;pressure_sealevel;temperature;humidity
29467;BME280;60968;37.490;-122.288;2022-12-18T00:02:20;98883.94;;;10.00;64.99
29467;BME280;60968;37.490;-122.288;2022-12-18T00:05:20;98875.41;;;9.90;65.75
29467;BME280;60968;37.490;-122.288;2022-12-18T00:08:21;98879.88;;;9.81;66.44
29467;BME280;60968;37.490;-122.288;2022-12-18T00:11:25;98877.41;;;9.68;66.75
29467;BME280;60968;37.490;-122.288;2022-12-18T00:14:27;98874.97;;;9.56;67.39
29467;BME280;60968;37.490;-122.288;2022-12-18T00:17:27;98875.94;;;9.47;68.31
29467;BME280;60968;37.490;-122.288;2022-12-18T00:20:28;98877.81;;;9.36;68.61
29467;BME280;60968;37.490;-122.288;2022-12-18T00:23:30;98885.69;;;9.28;69.65
29467;BME280;60968;37.490;-122.288;2022-12-18T00:26:32;98876.28;;;9.16;70.93
29467;BME280;60968;37.490;-122.288;2022-12-18T00:29:34;98881.63;;;9.02;71.25
29467;BME280;60968;37.490;-122.288;2022-12-18T00:32:35;98882.63;;;8.86;72.73
29467;BME280;60968;37.490;-122.288;2022-12-18T00:35:35;98879.28;;;8.74;73.88
29467;BME280;60968;37.490;-122.288;2022-12-18T00:38:37;98875.94;;;8.62;74.81
29467;BME280;60968;37.490;-122.288;2022-12-18T00:41:38;98875.13;;;8.52;74.40
29467;BME280;60968;37.490;-122.288;2022-12-18T00:44:38;98872.53;;;8.52;73.23
29467;BME280;60968;37.490;-122.288;2022-12-18T00:47:41;98869.94;;;8.52;73.76
29467;BME280;60968;37.490;-122.288;2022-12-18T00:50:42;98878.69;;;8.34;75.90
29467;BME280;60968;37.490;-122.288;2022-12-18T00:53:43;98875.34;;;8.18;78.36
29467;BME280;60968;37.490;-122.288;2022-12-18T00:56:44;98873.72;;;8.03;78.11
29467;BME280;60968;37.490;-122.288;2022-12-18T00:59:45;98872.91;;;7.95;78.68
29467;BME280;60968;37.490;-122.288;2022-12-18T01:02:46;98872.09;;;7.86;79.28
29467;BME280;60968;37.490;-122.288;2022-12-18T01:05:47;98863.47;;;7.81;81.33
29467;BME280;60968;37.490;-122.288;2022-12-18T01:08:48;98873.88;;;7.78;82.52
29467;BME280;60968;37.490;-122.288;2022-12-18T01:11:49;98877.34;;;7.71;84.07
29467;BME280;60968;37.490;-122.288;2022-12-18T01:14:50;98886.88;;;7.66;82.63
29467;BME280;60968;37.490;-122.288;2022-12-18T01:17:54;98883.44;;;7.64;83.72
29467;BME280;60968;37.490;-122.288;2022-12-18T01:20:55;98878.25;;;7.67;83.32
29467;BME280;60968;37.490;-122.288;2022-12-18T01:23:56;98873.06;;;7.67;84.00
29467;BME280;60968;37.490;-122.288;2022-12-18T01:26:57;98871.38;;;7.60;85.24
29467;BME280;60968;37.490;-122.288;2022-12-18T01:29:58;98877.44;;;7.54;84.26
29467;BME280;60968;37.490;-122.288;2022-12-18T01:32:59;98876.59;;;7.49;83.35
29467;BME280;60968;37.490;-122.288;2022-12-18T01:36:00;98880.06;;;7.42;83.30
29467;BME280;60968;37.490;-122.288;2022-12-18T01:39:03;98872.31;;;7.40;83.71
29467;BME280;60968;37.490;-122.288;2022-12-18T01:42:15;98874.03;;;7.36;83.11
29467;BME280;60968;37.490;-122.288;2022-12-18T01:48:17;98880.09;;;7.29;82.65
29467;BME280;60968;37.490;-122.288;2022-12-18T01:51:18;98887.00;;;7.24;82.54
29467;BME280;60968;37.490;-122.288;2022-12-18T01:54:18;98888.78;;;7.19;81.48
29467;BME280;60968;37.490;-122.288;2022-12-18T01:57:20;98880.13;;;7.17;82.78
29467;BME280;60968;37.490;-122.288;2022-12-18T02:00:22;98875.81;;;7.14;82.57
29467;BME280;60968;37.490;-122.288;2022-12-18T02:03:23;98878.41;;;7.13;82.30
29467;BME280;60968;37.490;-122.288;2022-12-18T02:06:34;98875.81;;;7.13;83.57
29467;BME280;60968;37.490;-122.288;2022-12-18T02:10:17;98881.00;;;7.14;84.21
29467;BME280;60968;37.490;-122.288;2022-12-18T02:26:55;98874.13;;;7.01;84.69
29467;BME280;60968;37.490;-122.288;2022-12-18T02:29:59;98874.16;;;6.98;85.00
29467;BME280;60968;37.490;-122.288;2022-12-18T02:33:04;98872.44;;;6.92;84.97
29467;BME280;60968;37.490;-122.288;2022-12-18T02:36:08;98877.59;;;6.89;84.83
29467;BME280;60968;37.490;-122.288;2022-12-18T02:39:11;98883.66;;;6.88;84.34
29467;BME280;60968;37.490;-122.288;2022-12-18T02:42:13;98878.47;;;6.88;83.23
29467;BME280;60968;37.490;-122.288;2022-12-18T02:45:14;98877.59;;;6.84;83.42
29467;BME280;60968;37.490;-122.288;2022-12-18T02:48:22;98873.28;;;6.83;83.04
29467;BME280;60968;37.490;-122.288;2022-12-18T02:51:29;98871.53;;;6.90;81.44
29467;BME280;60968;37.490;-122.288;2022-12-18T03:01:21;98870.66;;;6.99;76.36
29467;BME280;60968;37.490;-122.288;2022-12-18T03:04:38;98869.81;;;6.97;75.95
29467;BME280;60968;37.490;-122.288;2022-12-18T03:08:02;98872.41;;;6.95;75.94
29467;BME280;60968;37.490;-122.288;2022-12-18T03:11:08;98864.66;;;6.92;75.98
29467;BME280;60968;37.490;-122.288;2022-12-18T03:14:11;98861.19;;;6.87;76.47
29467;BME280;60968;37.490;-122.288;2022-12-18T03:17:17;98866.41;;;6.82;76.30
29467;BME280;60968;37.490;-122.288;2022-12-18T03:20:21;98865.53;;;6.85;75.38
29467;BME280;60968;37.490;-122.288;2022-12-18T03:23:29;98861.19;;;6.95;75.06
29467;BME280;60968;37.490;-122.288;2022-12-18T03:26:33;98860.31;;;6.94;76.62
29467;BME280;60968;37.490;-122.288;2022-12-18T03:29:42;98868.94;;;6.93;78.00
29467;BME280;60968;37.490;-122.288;2022-12-18T03:36:10;98872.41;;;7.00;78.40
29467;BME280;60968;37.490;-122.288;2022-12-18T03:39:13;98868.09;;;7.00;79.24
29467;BME280;60968;37.490;-122.288;2022-12-18T03:45:48;98861.16;;;7.06;78.08
29467;BME280;60968;37.490;-122.288;2022-12-18T03:52:17;98863.81;;;6.82;82.60
29467;BME280;60968;37.490;-122.288;2022-12-18T03:55:19;98862.06;;;6.70;83.34
29467;BME280;60968;37.490;-122.288;2022-12-18T03:58:24;98850.00;;;6.66;82.98
29467;BME280;60968;37.490;-122.288;2022-12-18T04:01:34;98856.06;;;6.68;84.04
29467;BME280;60968;37.490;-122.288;2022-12-18T04:04:38;98862.09;;;6.61;86.20
29467;BME280;60968;37.490;-122.288;2022-12-18T04:07:41;98857.78;;;6.48;87.37
29467;BME280;60968;37.490;-122.288;2022-12-18T04:10:42;98862.09;;;6.37;88.56
29467;BME280;60968;37.490;-122.288;2022-12-18T04:13:43;98856.06;;;6.34;89.31
29467;BME280;60968;37.490;-122.288;2022-12-18T04:16:44;98859.50;;;6.30;89.61
29467;BME280;60968;37.490;-122.288;2022-12-18T04:19:46;98862.09;;;6.29;89.54
29467;BME280;60968;37.490;-122.288;2022-12-18T04:22:47;98856.06;;;6.33;90.13
29467;BME280;60968;37.490;-122.288;2022-12-18T04:25:49;98853.47;;;6.34;89.72
29467;BME280;60968;37.490;-122.288;2022-12-18T04:28:50;98846.56;;;6.33;88.79
29467;BME280;60968;37.490;-122.288;2022-12-18T04:31:51;98846.56;;;6.37;88.79
29467;BME280;60968;37.490;-122.288;2022-12-18T04:34:52;98849.16;;;6.33;88.93
29467;BME280;60968;37.490;-122.288;2022-12-18T04:37:53;98850.03;;;6.25;89.26
29467;BME280;60968;37.490;-122.288;2022-12-18T04:40:54;98853.47;;;6.21;90.56
29467;BME280;60968;37.490;-122.288;2022-12-18T04:43:54;98853.47;;;6.22;91.21
29467;BME280;60968;37.490;-122.288;2022-12-18T04:46:55;98850.03;;;6.26;91.81
29467;BME280;60968;37.490;-122.288;2022-12-18T04:49:56;98849.16;;;6.30;91.76
29467;BME280;60968;37.490;-122.288;2022-12-18T04:52:57;98847.44;;;6.29;91.85
29467;BME280;60968;37.490;-122.288;2022-12-18T04:56:10;98853.47;;;6.27;92.88
29467;BME280;60968;37.490;-122.288;2022-12-18T04:59:11;98849.13;;;6.24;92.36
29467;BME280;60968;37.490;-122.288;2022-12-18T05:02:12;98852.59;;;6.23;93.16
29467;BME280;60968;37.490;-122.288;2022-12-18T05:05:12;98855.16;;;6.17;93.52
29467;BME280;60968;37.490;-122.288;2022-12-18T05:08:13;98853.44;;;6.11;93.50
29467;BME280;60968;37.490;-122.288;2022-12-18T05:11:15;98850.84;;;6.10;93.61
29467;BME280;60968;37.490;-122.288;2022-12-18T05:14:16;98850.00;;;6.17;93.27
29467;BME280;60968;37.490;-122.288;2022-12-18T05:17:17;98852.56;;;6.20;93.04
29467;BME280;60968;37.490;-122.288;2022-12-18T05:20:18;98851.72;;;6.16;93.52
29467;BME280;60968;37.490;-122.288;2022-12-18T05:23:20;98849.16;;;6.18;93.14
29467;BME280;60968;37.490;-122.288;2022-12-18T05:26:21;98849.13;;;6.24;92.81
29467;BME280;60968;37.490;-122.288;2022-12-18T05:29:22;98850.03;;;6.22;93.12
29467;BME280;60968;37.490;-122.288;2022-12-18T05:32:23;98842.22;;;6.17;94.15
29467;BME280;60968;37.490;-122.288;2022-12-18T05:35:24;98840.53;;;6.19;93.84
29467;BME280;60968;37.490;-122.288;2022-12-18T05:38:27;98844.00;;;6.27;92.37
29467;BME280;60968;37.490;-122.288;2022-12-18T05:41:28;98840.53;;;6.33;92.71
29467;BME280;60968;37.490;-122.288;2022-12-18T05:44:29;98834.47;;;6.32;92.44
29467;BME280;60968;37.490;-122.288;2022-12-18T05:47:31;98844.84;;;6.31;92.55
29467;BME280;60968;37.490;-122.288;2022-12-18T05:50:34;98841.38;;;6.35;91.52
29467;BME280;60968;37.490;-122.288;2022-12-18T05:53:36;98842.25;;;6.42;90.18
29467;BME280;60968;37.490;-122.288;2022-12-18T05:56:38;98841.41;;;6.44;90.91
29467;BME280;60968;37.490;-122.288;2022-12-18T05:59:38;98844.81;;;6.34;91.02
29467;BME280;60968;37.490;-122.288;2022-12-18T06:02:39;98837.94;;;6.42;89.59
29467;BME280;60968;37.490;-122.288;2022-12-18T06:05:44;98844.84;;;6.37;91.49
29467;BME280;60968;37.490;-122.288;2022-12-18T06:08:46;98843.09;;;6.28;91.49
29467;BME280;60968;37.490;-122.288;2022-12-18T06:11:47;98837.06;;;6.20;92.11
29467;BME280;60968;37.490;-122.288;2022-12-18T06:14:48;98836.19;;;6.10;93.43
29467;BME280;60968;37.490;-122.288;2022-12-18T06:17:51;98845.69;;;6.05;92.53
29467;BME280;60968;37.490;-122.288;2022-12-18T06:20:56;98844.84;;;6.06;93.23
29467;BME280;60968;37.490;-122.288;2022-12-18T06:23:57;98842.19;;;5.95;94.10
29467;BME280;60968;37.490;-122.288;2022-12-18T06:26:58;98834.41;;;5.84;94.52
29467;BME280;60968;37.490;-122.288;2022-12-18T06:30:01;98833.50;;;5.78;95.59
29467;BME280;60968;37.490;-122.288;2022-12-18T06:33:03;98836.97;;;5.77;96.50
29467;BME280;60968;37.490;-122.288;2022-12-18T06:36:05;98837.84;;;5.76;97.47
29467;BME280;60968;37.490;-122.288;2022-12-18T06:39:07;98839.53;;;5.69;97.34
29467;BME280;60968;37.490;-122.288;2022-12-18T06:42:08;98837.78;;;5.63;97.11
29467;BME280;60968;37.490;-122.288;2022-12-18T06:45:09;98842.06;;;5.58;98.07
29467;BME280;60968;37.490;-122.288;2022-12-18T06:48:10;98847.25;;;5.55;99.34
29467;BME280;60968;37.490;-122.288;2022-12-18T06:51:11;98858.41;;;5.43;100.00
29467;BME280;60968;37.490;-122.288;2022-12-18T06:54:12;98852.31;;;5.30;100.00
29467;BME280;60968;37.490;-122.288;2022-12-18T06:57:13;98855.75;;;5.31;100.00
29467;BME280;60968;37.490;-122.288;2022-12-18T07:00:14;98854.91;;;5.29;100.00
29467;BME280;60968;37.490;-122.288;2022-12-18T07:03:15;98855.75;;;5.32;100.00
29467;BME280;60968;37.490;-122.288;2022-12-18T07:06:18;98853.16;;;5.25;100.00
29467;BME280;60968;37.490;-122.288;2022-12-18T07:09:20;98866.09;;;5.32;100.00
29467;BME280;60968;37.490;-122.288;2022-12-18T07:12:21;98865.25;;;5.32;100.00
29467;BME280;60968;37.490;-122.288;2022-12-18T07:15:22;98864.34;;;5.28;100.00
29467;BME280;60968;37.490;-122.288;2022-12-18T07:18:22;98860.03;;;5.24;100.00
29467;BME280;60968;37.490;-122.288;2022-12-18T07:21:24;98857.44;;;5.21;100.00
29467;BME280;60968;37.490;-122.288;2022-12-18T07:24:25;98850.53;;;5.17;100.00
29467;BME280;60968;37.490;-122.288;2022-12-18T07:27:26;98853.09;;;5.12;100.00
29467;BME280;60968;37.490;-122.288;2022-12-18T07:30:28;98853.09;;;5.08;100.00
29467;BME280;60968;37.490;-122.288;2022-12-18T07:33:29;98857.34;;;5.06;100.00
29467;BME280;60968;37.490;-122.288;2022-12-18T07:36:30;98849.63;;;5.09;100.00
29467;BME280;60968;37.490;-122.288;2022-12-18T07:39:31;98850.50;;;5.11;100.00
29467;BME280;60968;37.490;-122.288;2022-12-18T07:42:32;98840.19;;;5.11;100.00
29467;BME280;60968;37.490;-122.288;2022-12-18T07:45:33;98836.78;;;5.23;100.00
29467;BME280;60968;37.490;-122.288;2022-12-18T07:48:34;98833.47;;;5.52;100.00
29467;BME280;60968;37.490;-122.288;2022-12-18T07:51:35;98826.56;;;5.47;100.00
29467;BME280;60968;37.490;-122.288;2022-12-18T07:54:36;98831.72;;;5.50;100.00
29467;BME280;60968;37.490;-122.288;2022-12-18T07:57:37;98827.41;;;5.45;100.00
29467;BME280;60968;37.490;-122.288;2022-12-18T08:00:38;98825.59;;;5.28;100.00
29467;BME280;60968;37.490;-122.288;2022-12-18T08:03:39;98824.75;;;5.28;100.00
29467;BME280;60968;37.490;-122.288;2022-12-18T08:06:40;98829.91;;;5.23;100.00
29467;BME280;60968;37.490;-122.288;2022-12-18T08:09:45;98828.16;;;5.19;100.00
29467;BME280;60968;37.490;-122.288;2022-12-18T08:12:49;98825.59;;;5.18;100.00
29467;BME280;60968;37.490;-122.288;2022-12-18T08:16:05;98829.03;;;5.21;100.00
29467;BME280;60968;37.490;-122.288;2022-12-18T08:19:06;98829.06;;;5.29;100.00
29467;BME280;60968;37.490;-122.288;2022-12-18T08:22:07;98832.50;;;5.32;100.00
29467;BME280;60968;37.490;-122.288;2022-12-18T08:25:09;98827.38;;;5.39;100.00
29467;BME280;60968;37.490;-122.288;2022-12-18T08:28:10;98823.94;;;5.40;100.00
29467;BME280;60968;37.490;-122.288;2022-12-18T08:31:11;98819.66;;;5.45;100.00
29467;BME280;60968;37.490;-122.288;2022-12-18T08:34:13;98811.94;;;5.56;100.00
29467;BME280;60968;37.490;-122.288;2022-12-18T08:37:15;98811.06;;;5.58;100.00
29467;BME280;60968;37.490;-122.288;2022-12-18T08:40:16;98812.78;;;5.50;100.00
29467;BME280;60968;37.490;-122.288;2022-12-18T08:43:18;98812.75;;;5.39;100.00
29467;BME280;60968;37.490;-122.288;2022-12-18T08:46:19;98811.00;;;5.29;100.00
29467;BME280;60968;37.490;-122.288;2022-12-18T08:49:20;98811.78;;;5.22;100.00
29467;BME280;60968;37.490;-122.288;2022-12-18T08:52:21;98812.63;;;5.16;100.00
29467;BME280;60968;37.490;-122.288;2022-12-18T08:55:22;98818.66;;;5.13;100.00
29467;BME280;60968;37.490;-122.288;2022-12-18T08:58:23;98820.41;;;5.18;100.00
29467;BME280;60968;37.490;-122.288;2022-12-18T09:01:24;98821.25;;;5.12;100.00
29467;BME280;60968;37.490;-122.288;2022-12-18T09:04:25;98816.03;;;5.03;100.00
29467;BME280;60968;37.490;-122.288;2022-12-18T09:07:26;98821.16;;;4.96;100.00
29467;BME280;60968;37.490;-122.288;2022-12-18T09:10:28;98817.69;;;4.91;100.00
29467;BME280;60968;37.490;-122.288;2022-12-18T09:13:29;98822.78;;;4.84;100.00
29467;BME280;60968;37.490;-122.288;2022-12-18T09:16:31;98817.63;;;4.80;100.00
29467;BME280;60968;37.490;-122.288;2022-12-18T09:19:32;98821.03;;;4.78;100.00
29467;BME280;60968;37.490;-122.288;2022-12-18T09:22:34;98824.50;;;4.80;100.00
29467;BME280;60968;37.490;-122.288;2022-12-18T09:25:35;98823.59;;;4.75;100.00
29467;BME280;60968;37.490;-122.288;2022-12-18T09:28:37;98829.63;;;4.74;100.00
29467;BME280;60968;37.490;-122.288;2022-12-18T09:31:39;98834.78;;;4.72;100.00
29467;BME280;60968;37.490;-122.288;2022-12-18T09:34:40;98836.47;;;4.67;100.00
29467;BME280;60968;37.490;-122.288;2022-12-18T09:37:42;98842.47;;;4.61;100.00
29467;BME280;60968;37.490;-122.288;2022-12-18T09:44:10;98844.16;;;4.58;100.00
29467;BME280;60968;37.490;-122.288;2022-12-18T09:47:27;98834.66;;;4.55;100.00
29467;BME280;60968;37.490;-122.288;2022-12-18T09:50:35;98840.69;;;4.56;100.00
29467;BME280;60968;37.490;-122.288;2022-12-18T09:53:39;98844.13;;;4.56;100.00
29467;BME280;60968;37.490;-122.288;2022-12-18T09:56:43;98845.88;;;4.57;100.00
29467;BME280;60968;37.490;-122.288;2022-12-18T09:59:48;98845.88;;;4.60;100.00
29467;BME280;60968;37.490;-122.288;2022-12-18T10:02:51;98844.16;;;4.58;100.00
29467;BME280;60968;37.490;-122.288;2022-12-18T10:09:16;98849.28;;;4.53;100.00
29467;BME280;60968;37.490;-122.288;2022-12-18T10:12:36;98850.22;;;4.61;100.00
29467;BME280;60968;37.490;-122.288;2022-12-18T10:19:10;98856.25;;;4.70;100.00
29467;BME280;60968;37.490;-122.288;2022-12-18T10:22:55;98854.50;;;4.62;100.00
29467;BME280;60968;37.490;-122.288;2022-12-18T10:26:04;98863.06;;;4.58;100.00
29467;BME280;60968;37.490;-122.288;2022-12-18T10:29:13;98863.03;;;4.55;100.00
29467;BME280;60968;37.490;-122.288;2022-12-18T10:32:26;98863.88;;;4.54;100.00
29467;BME280;60968;37.490;-122.288;2022-12-18T10:35:28;98869.03;;;4.50;100.00
29467;BME280;60968;37.490;-122.288;2022-12-18T10:38:31;98858.59;;;4.37;100.00
29467;BME280;60968;37.490;-122.288;2022-12-18T10:41:32;98854.25;;;4.33;100.00
29467;BME280;60968;37.490;-122.288;2022-12-18T10:44:33;98861.97;;;4.28;100.00
29467;BME280;60968;37.490;-122.288;2022-12-18T10:47:35;98867.09;;;4.25;100.00
29467;BME280;60968;37.490;-122.288;2022-12-18T10:50:37;98862.78;;;4.23;100.00
29467;BME280;60968;37.490;-122.288;2022-12-18T10:53:40;98863.63;;;4.22;100.00
29467;BME280;60968;37.490;-122.288;2022-12-18T10:56:43;98855.06;;;4.24;100.00
29467;BME280;60968;37.490;-122.288;2022-12-18T10:59:55;98866.28;;;4.28;100.00
29467;BME280;60968;37.490;-122.288;2022-12-18T11:02:57;98863.66;;;4.23;100.00
29467;BME280;60968;37.490;-122.288;2022-12-18T11:06:07;98861.94;;;4.22;100.00
29467;BME280;60968;37.490;-122.288;2022-12-18T11:09:23;98862.78;;;4.26;100.00
29467;BME280;60968;37.490;-122.288;2022-12-18T11:12:25;98860.19;;;4.23;100.00
29467;BME280;60968;37.490;-122.288;2022-12-18T11:15:29;98873.03;;;4.15;100.00
29467;BME280;60968;37.490;-122.288;2022-12-18T11:18:35;98875.56;;;4.12;100.00
29467;BME280;60968;37.490;-122.288;2022-12-18T11:21:42;98869.59;;;4.18;100.00
29467;BME280;60968;37.490;-122.288;2022-12-18T11:24:49;98869.59;;;4.16;100.00
29467;BME280;60968;37.490;-122.288;2022-12-18T11:28:06;98865.31;;;4.15;100.00
29467;BME280;60968;37.490;-122.288;2022-12-18T11:31:27;98862.66;;;4.12;100.00
29467;BME280;60968;37.490;-122.288;2022-12-18T11:34:30;98866.94;;;4.08;100.00
29467;BME280;60968;37.490;-122.288;2022-12-18T11:37:33;98866.94;;;4.08;100.00
29467;BME280;60968;37.490;-122.288;2022-12-18T11:40:36;98863.53;;;4.08;100.00
29467;BME280;60968;37.490;-122.288;2022-12-18T11:43:42;98860.91;;;4.06;100.00
29467;BME280;60968;37.490;-122.288;2022-12-18T11:46:57;98860.03;;;4.03;100.00
29467;BME280;60968;37.490;-122.288;2022-12-18T11:50:02;98859.94;;;3.97;100.00
29467;BME280;60968;37.490;-122.288;2022-12-18T11:53:10;98860.81;;;3.95;100.00
29467;BME280;60968;37.490;-122.288;2022-12-18T11:59:47;98845.47;;;4.08;100.00
29467;BME280;60968;37.490;-122.288;2022-12-18T12:10:04;98844.59;;;4.10;100.00
29467;BME280;60968;37.490;-122.288;2022-12-18T12:16:25;98845.63;;;4.26;100.00
29467;BME280;60968;37.490;-122.288;2022-12-18T12:23:19;98845.63;;;4.25;100.00
29467;BME280;60968;37.490;-122.288;2022-12-18T12:29:42;98850.81;;;4.29;100.00
29467;BME280;60968;37.490;-122.288;2022-12-18T12:32:59;98847.31;;;4.24;100.00
29467;BME280;60968;37.490;-122.288;2022-12-18T12:39:23;98836.81;;;4.04;100.00
29467;BME280;60968;37.490;-122.288;2022-12-18T12:42:51;98837.59;;;3.94;100.00
29467;BME280;60968;37.490;-122.288;2022-12-18T12:46:06;98843.47;;;3.82;100.00
29467;BME280;60968;37.490;-122.288;2022-12-18T12:49:19;98844.22;;;3.70;100.00
29467;BME280;60968;37.490;-122.288;2022-12-18T12:52:30;98852.59;;;3.49;100.00
29467;BME280;60968;37.490;-122.288;2022-12-18T12:55:34;98862.09;;;3.55;100.00
29467;BME280;60968;37.490;-122.288;2022-12-18T13:08:30;98847.13;;;4.03;100.00
29467;BME280;60968;37.490;-122.288;2022-12-18T13:11:42;98851.38;;;4.01;100.00
29467;BME280;60968;37.490;-122.288;2022-12-18T13:14:44;98851.38;;;3.98;100.00
29467;BME280;60968;37.490;-122.288;2022-12-18T13:17:45;98849.56;;;3.89;100.00
29467;BME280;60968;37.490;-122.288;2022-12-18T13:20:51;98851.19;;;3.81;100.00
29467;BME280;60968;37.490;-122.288;2022-12-18T13:24:23;98844.25;;;3.72;100.00
29467;BME280;60968;37.490;-122.288;2022-12-18T13:30:59;98845.03;;;3.65;100.00
29467;BME280;60968;37.490;-122.288;2022-12-18T13:47:32;98842.25;;;3.46;100.00
29467;BME280;60968;37.490;-122.288;2022-12-18T13:50:35;98837.19;;;3.55;100.00
29467;BME280;60968;37.490;-122.288;2022-12-18T13:53:49;98840.69;;;3.62;100.00
29467;BME280;60968;37.490;-122.288;2022-12-18T13:56:51;98846.69;;;3.59;100.00
29467;BME280;60968;37.490;-122.288;2022-12-18T13:59:52;98850.84;;;3.48;100.00
29467;BME280;60968;37.490;-122.288;2022-12-18T14:02:53;98858.50;;;3.40;100.00
29467;BME280;60968;37.490;-122.288;2022-12-18T14:06:08;98849.00;;;3.36;100.00
29467;BME280;60968;37.490;-122.288;2022-12-18T14:09:14;98845.53;;;3.36;100.00
29467;BME280;60968;37.490;-122.288;2022-12-18T14:12:28;98843.84;;;3.36;100.00
29467;BME280;60968;37.490;-122.288;2022-12-18T14:15:43;98849.84;;;3.35;100.00
29467;BME280;60968;37.490;-122.288;2022-12-18T14:18:55;98851.56;;;3.35;100.00
29467;BME280;60968;37.490;-122.288;2022-12-18T14:21:56;98856.75;;;3.38;100.00
29467;BME280;60968;37.490;-122.288;2022-12-18T14:28:14;98860.03;;;3.28;100.00
29467;BME280;60968;37.490;-122.288;2022-12-18T14:31:24;98862.59;;;3.26;100.00
29467;BME280;60968;37.490;-122.288;2022-12-18T14:34:26;98868.66;;;3.30;100.00
29467;BME280;60968;37.490;-122.288;2022-12-18T14:37:27;98875.75;;;3.48;100.00
29467;BME280;60968;37.490;-122.288;2022-12-18T14:40:28;98877.41;;;3.42;100.00
29467;BME280;60968;37.490;-122.288;2022-12-18T14:43:33;98881.63;;;3.39;100.00
29467;BME280;60968;37.490;-122.288;2022-12-18T14:46:38;98874.81;;;3.41;100.00
29467;BME280;60968;37.490;-122.288;2022-12-18T14:49:41;98870.59;;;3.46;100.00
29467;BME280;60968;37.490;-122.288;2022-12-18T14:52:44;98864.50;;;3.41;100.00
29467;BME280;60968;37.490;-122.288;2022-12-18T14:55:48;98873.22;;;3.52;100.00
29467;BME280;60968;37.490;-122.288;2022-12-18T14:59:02;98883.56;;;3.55;100.00
29467;BME280;60968;37.490;-122.288;2022-12-18T15:02:25;98882.69;;;3.55;100.00
29467;BME280;60968;37.490;-122.288;2022-12-18T15:05:29;98884.50;;;3.60;100.00
29467;BME280;60968;37.490;-122.288;2022-12-18T15:08:35;98879.34;;;3.62;100.00
29467;BME280;60968;37.490;-122.288;2022-12-18T15:14:45;98871.63;;;3.64;100.00
29467;BME280;60968;37.490;-122.288;2022-12-18T15:17:46;98884.50;;;3.64;100.00
29467;BME280;60968;37.490;-122.288;2022-12-18T15:20:53;98883.72;;;3.68;100.00
29467;BME280;60968;37.490;-122.288;2022-12-18T15:23:54;98882.03;;;3.71;100.00
29467;BME280;60968;37.490;-122.288;2022-12-18T15:26:55;98878.59;;;3.74;100.00
29467;BME280;60968;37.490;-122.288;2022-12-18T15:30:20;98888.94;;;3.75;100.00
29467;BME280;60968;37.490;-122.288;2022-12-18T15:33:26;98885.59;;;3.83;100.00
29467;BME280;60968;37.490;-122.288;2022-12-18T15:36:28;98881.31;;;3.86;100.00
29467;BME280;60968;37.490;-122.288;2022-12-18T15:39:30;98877.94;;;3.89;100.00
29467;BME280;60968;37.490;-122.288;2022-12-18T15:42:31;98880.56;;;3.95;100.00
29467;BME280;60968;37.490;-122.288;2022-12-18T15:45:33;98882.28;;;3.94;100.00
29467;BME280;60968;37.490;-122.288;2022-12-18T15:48:38;98896.97;;;4.02;100.00
29467;BME280;60968;37.490;-122.288;2022-12-18T15:51:40;98897.03;;;4.08;100.00
29467;BME280;60968;37.490;-122.288;2022-12-18T15:54:41;98906.59;;;4.18;100.00
29467;BME280;60968;37.490;-122.288;2022-12-18T15:57:41;98903.22;;;4.27;100.00
29467;BME280;60968;37.490;-122.288;2022-12-18T16:00:42;98895.59;;;4.36;100.00
29467;BME280;60968;37.490;-122.288;2022-12-18T16:03:43;98900.81;;;4.47;100.00
29467;BME280;60968;37.490;-122.288;2022-12-18T16:06:44;98901.00;;;4.66;100.00
29467;BME280;60968;37.490;-122.288;2022-12-18T16:09:47;98906.66;;;5.47;100.00
29467;BME280;60968;37.490;-122.288;2022-12-18T16:12:48;98906.63;;;7.98;100.00
29467;BME280;60968;37.490;-122.288;2022-12-18T16:15:49;98912.16;;;9.64;100.00
29467;BME280;60968;37.490;-122.288;2022-12-18T16:18:50;98906.25;;;10.77;100.00
29467;BME280;60968;37.490;-122.288;2022-12-18T16:21:52;98902.94;;;11.63;92.72
29467;BME280;60968;37.490;-122.288;2022-12-18T16:24:55;98903.38;;;12.26;88.03
29467;BME280;60968;37.490;-122.288;2022-12-18T16:27:56;98903.38;;;12.98;84.31
29467;BME280;60968;37.490;-122.288;2022-12-18T16:30:57;98906.56;;;13.44;77.47
29467;BME280;60968;37.490;-122.288;2022-12-18T16:34:20;98912.22;;;13.60;68.62
29467;BME280;60968;37.490;-122.288;2022-12-18T16:37:21;98911.56;;;13.53;69.52
29467;BME280;60968;37.490;-122.288;2022-12-18T16:40:22;98908.75;;;14.20;68.60
29467;BME280;60968;37.490;-122.288;2022-12-18T16:43:24;98911.41;;;14.47;61.60
29467;BME280;60968;37.490;-122.288;2022-12-18T16:46:25;98917.31;;;14.26;62.16
29467;BME280;60968;37.490;-122.288;2022-12-18T16:49:26;98923.69;;;14.45;63.45
29467;BME280;60968;37.490;-122.288;2022-12-18T16:52:28;98928.59;;;15.11;61.73
29467;BME280;60968;37.490;-122.288;2022-12-18T16:55:28;98928.84;;;15.79;59.28
29467;BME280;60968;37.490;-122.288;2022-12-18T16:58:29;98930.69;;;16.24;57.20
29467;BME280;60968;37.490;-122.288;2022-12-18T17:01:31;98943.09;;;16.43;55.46
29467;BME280;60968;37.490;-122.288;2022-12-18T17:04:33;98957.44;;;14.84;57.53
29467;BME280;60968;37.490;-122.288;2022-12-18T17:07:34;98951.16;;;12.68;65.54
29467;BME280;60968;37.490;-122.288;2022-12-18T17:10:35;98961.09;;;11.23;73.32
29467;BME280;60968;37.490;-122.288;2022-12-18T17:13:36;98964.44;;;10.12;80.55
29467;BME280;60968;37.490;-122.288;2022-12-18T17:16:36;98959.25;;;9.41;83.81
29467;BME280;60968;37.490;-122.288;2022-12-18T17:19:37;98965.50;;;9.17;87.70
29467;BME280;60968;37.490;-122.288;2022-12-18T17:22:38;98961.28;;;9.06;89.30